Angelina County Airport
KLFK : now visible

Airfield :











YOU CAN JOIN US ON...

 
LOGIN :

Register | Disclaimer

   EN    FR    IT 

 









Legend :    VFR   Marginal VFR   IFR   Intensive IFR   Very Intensive IFR
Visi :
Ceiling :
>= 8 km
>= 3000ft
5 to 8 km
1000 to 3000 ft
1500m to 5 km
500 to 1000 ft
800 to 1500m
200 to 500 ft
< 800m
< 200 ft
Symbols :   Thunderstorms  Fog  Heavy snow  Heavy precipitations  Wind > 20 kt






- Airport Elevation : 296 ft


KLFK - Angelina County

CURRENT METAR :
  • 271453Z AUTO 00000KT 6SM BR OVC005 26/25 A2994 RMK AO2 SLP134 T02560250 51016

EXPIRED METARs :
  • 271438Z AUTO 00000KT 5SM BR OVC004 26/26 A2993 RMK AO2 T02560256
  • 271422Z AUTO 00000KT 4SM BR OVC005 26/26 A2993 RMK AO2 CIG 003V007 T02560256
  • 271353Z AUTO 00000KT 2SM BR OVC003 25/25 A2992 RMK AO2 SLP127 T02500250
  • 271330Z AUTO 27004KT 3SM BR OVC002 25/25 A2991 RMK AO2 T02500250
  • 271253Z AUTO 00000KT 1/2SM FG VV002 25/25 A2989 RMK AO2 SLP117 T02500250
  • 271211Z AUTO 00000KT 1/2SM FG VV002 24/24 A2988 RMK AO2 T02440244
  • 271153Z AUTO 00000KT 1/4SM FG VV002 24/24 A2987 RMK AO2 SLP109 T02440244 10256 20239 53014
  • 271146Z AUTO 00000KT 1/4SM FG VV002 24/24 A2987 RMK AO2 T02440244
  • 271053Z AUTO 00000KT 1 1/4SM BR OVC002 24/24 A2984 RMK AO2 SLP099 T02390239

TAF KLFK
Valid from the 27 at 14:00 until the 28 at 12:00 UTC


271358Z 2714/2812 00000KT 2SM BR OVC003
FM271800 12004KT P6SM BKN250
FM280000 12005KT P6SM BKN250
KZHU FIR / North America



MET'MAP, your aeronautical weather chart ! - Copyright ORBIFLY December 2007 - Disclaimer

ORBIFLY MET'MAP TEAM :

Programming & Development : Alexandra Zaïnal
Original concept : Baudouin d'Aumeries
Technical & hardware support : Manuel Goepfert
Assistance : Marc-Olivier Méhu




SOURCES & CREDITS :

   NOAA       Earth
Advisory